Time;durP1;ratioP1;P1;durP2;ratioP2;P2;SDS_P1;SDS_P2;PMS_P1;PMS_P2;Temp;Humidity;BMP_temperature;BMP_pressure;BME280_temperature;BME280_humidity;BME280_pressure;Samples;Min_cycle;Max_cycle;Signal;HPM_P1;HPM_P2
2021/08/21 00:01:09;;;;;;;19.60;14.32;;;17.40;85.70;;;;;;5015564;28;20555;-73
2021/08/21 00:03:35;;;;;;;17.08;13.68;;;17.40;85.80;;;;;;5025582;28;20087;-78
2021/08/21 00:06:00;;;;;;;16.35;12.93;;;17.40;85.90;;;;;;5024426;28;20443;-72
2021/08/21 00:08:26;;;;;;;18.55;13.88;;;17.40;85.90;;;;;;5021389;28;20025;-72
2021/08/21 00:10:52;;;;;;;17.83;14.52;;;17.40;85.90;;;;;;5031850;28;20389;-71
2021/08/21 00:13:18;;;;;;;17.05;13.85;;;17.40;86.10;;;;;;5031368;28;20034;-73
2021/08/21 00:15:43;;;;;;;16.10;13.10;;;17.40;86.10;;;;;;5032118;28;20087;-72
2021/08/21 00:18:09;;;;;;;19.55;13.73;;;17.40;86.20;;;;;;5020335;28;20048;-72
2021/08/21 00:20:35;;;;;;;18.80;14.93;;;17.30;86.40;;;;;;5027132;28;20029;-72
2021/08/21 00:23:00;;;;;;;16.50;12.73;;;17.30;86.50;;;;;;5030613;28;20045;-73
2021/08/21 00:25:26;;;;;;;19.35;14.63;;;17.30;86.60;;;;;;5023878;28;20420;-73
2021/08/21 00:27:52;;;;;;;16.58;14.05;;;17.40;86.70;;;;;;5017014;28;20037;-72
2021/08/21 00:30:17;;;;;;;19.58;16.40;;;17.40;86.60;;;;;;5031602;28;20431;-72
2021/08/21 00:32:45;;;;;;;16.60;14.05;;;17.40;86.60;;;;;;5021098;28;20030;-72
2021/08/21 00:35:11;;;;;;;17.58;14.00;;;17.40;86.70;;;;;;5013599;28;20038;-73
2021/08/21 00:37:37;;;;;;;16.95;13.57;;;17.40;86.70;;;;;;5034258;28;20465;-73
2021/08/21 00:40:07;;;;;;;17.17;14.02;;;17.40;86.80;;;;;;5031033;28;20067;-72
2021/08/21 00:42:34;;;;;;;19.00;15.18;;;17.30;86.80;;;;;;5031236;28;20026;-71
2021/08/21 00:45:00;;;;;;;17.98;14.05;;;17.40;86.90;;;;;;5031855;28;20045;-72
2021/08/21 00:47:26;;;;;;;22.77;16.27;;;17.40;86.90;;;;;;5016445;28;20048;-74
2021/08/21 00:49:54;;;;;;;19.15;14.38;;;17.40;86.80;;;;;;5027967;28;20454;-71
2021/08/21 00:52:23;;;;;;;20.48;14.75;;;17.40;86.90;;;;;;5020416;28;20065;-71
2021/08/21 00:54:49;;;;;;;20.70;14.90;;;17.40;86.90;;;;;;5023698;28;20037;-72
2021/08/21 00:57:17;;;;;;;19.77;15.25;;;17.40;86.90;;;;;;5024791;28;20045;-72
2021/08/21 00:59:45;;;;;;;18.98;15.70;;;17.50;86.90;;;;;;5010509;28;20045;-72
2021/08/21 01:02:12;;;;;;;20.75;15.32;;;17.50;86.90;;;;;;5024516;28;20040;-72
2021/08/21 01:04:39;;;;;;;19.13;15.43;;;17.50;86.90;;;;;;5023617;28;20125;-79
2021/08/21 01:07:07;;;;;;;21.85;16.80;;;17.50;86.90;;;;;;5021290;28;20392;-75
2021/08/21 01:09:36;;;;;;;20.65;16.20;;;17.50;87.00;;;;;;5019695;28;20045;-76
2021/08/21 01:12:04;;;;;;;21.17;16.02;;;17.50;87.10;;;;;;5021586;28;20123;-72
2021/08/21 01:14:30;;;;;;;21.08;15.57;;;17.50;87.20;;;;;;5014978;28;20557;-74
2021/08/21 01:16:56;;;;;;;19.17;15.70;;;17.40;87.30;;;;;;5018035;28;20061;-71
2021/08/21 01:19:23;;;;;;;20.35;15.43;;;17.50;87.30;;;;;;5016984;28;20542;-73
2021/08/21 01:22:12;;;;;;;21.75;15.32;;;17.50;87.40;;;;;;5019182;28;20065;-72
2021/08/21 01:24:41;;;;;;;24.02;18.17;;;17.50;87.40;;;;;;5024985;28;20045;-72
2021/08/21 01:27:17;;;;;;;20.02;15.77;;;17.50;87.40;;;;;;5018419;28;20041;-74
2021/08/21 01:29:43;;;;;;;20.25;16.35;;;17.50;87.50;;;;;;5017129;28;20038;-72
2021/08/21 01:32:09;;;;;;;22.73;18.08;;;17.50;87.60;;;;;;5012395;28;20037;-72
2021/08/21 01:34:35;;;;;;;20.38;17.33;;;17.60;87.50;;;;;;5015459;28;20034;-72
2021/08/21 01:37:01;;;;;;;23.02;17.98;;;17.50;87.50;;;;;;5012646;28;20030;-72
2021/08/21 01:39:26;;;;;;;25.27;19.15;;;17.60;87.70;;;;;;5015354;28;20065;-73
2021/08/21 01:41:52;;;;;;;22.25;17.50;;;17.50;87.70;;;;;;5019795;28;20033;-79
2021/08/21 01:44:18;;;;;;;25.73;21.00;;;17.40;87.80;;;;;;5030586;28;20065;-72
2021/08/21 01:46:48;;;;;;;21.80;17.55;;;17.50;88.00;;;;;;5029192;28;20037;-73
2021/08/21 01:49:18;;;;;;;26.63;18.98;;;17.40;88.00;;;;;;5010961;28;20485;-73
2021/08/21 01:51:46;;;;;;;22.92;17.95;;;17.40;88.10;;;;;;5015050;28;20075;-72
2021/08/21 01:54:17;;;;;;;21.98;18.33;;;17.40;88.10;;;;;;5025062;28;20481;-75
2021/08/21 01:56:51;;;;;;;22.77;18.08;;;17.30;88.20;;;;;;5019136;28;20065;-72
2021/08/21 01:59:31;;;;;;;21.90;17.42;;;17.30;88.30;;;;;;5023411;28;20042;-76
2021/08/21 02:01:57;;;;;;;24.40;19.40;;;17.30;88.30;;;;;;5015031;28;20492;-73
2021/08/21 02:04:24;;;;;;;25.60;18.83;;;17.30;88.30;;;;;;5019172;28;20038;-72
2021/08/21 02:06:50;;;;;;;26.83;19.67;;;17.40;88.40;;;;;;5029959;28;20029;-72
2021/08/21 02:09:18;;;;;;;22.88;18.92;;;17.40;88.40;;;;;;5027562;28;20033;-74
2021/08/21 02:11:45;;;;;;;25.75;19.80;;;17.30;88.30;;;;;;5012548;28;20652;-72
2021/08/21 02:14:10;;;;;;;24.67;18.40;;;17.30;88.40;;;;;;5013855;28;20379;-72
2021/08/21 02:16:36;;;;;;;27.00;19.27;;;17.30;88.30;;;;;;5042780;28;20048;-79
2021/08/21 02:19:02;;;;;;;24.70;19.58;;;17.20;88.20;;;;;;5044563;28;20122;-72
2021/08/21 02:21:28;;;;;;;25.20;19.02;;;17.30;88.30;;;;;;5037455;28;20091;-73
2021/08/21 02:23:57;;;;;;;29.40;22.30;;;17.20;88.30;;;;;;5021907;28;20113;-73
2021/08/21 02:26:23;;;;;;;26.00;21.20;;;17.20;88.30;;;;;;5013025;28;20034;-72
2021/08/21 02:28:48;;;;;;;30.35;21.25;;;17.10;88.40;;;;;;5011051;28;20041;-72
2021/08/21 02:31:14;;;;;;;28.42;21.88;;;17.10;88.50;;;;;;5020724;28;20534;-77
2021/08/21 02:33:39;;;;;;;29.00;21.13;;;17.10;88.50;;;;;;5012588;28;20046;-72
2021/08/21 02:36:05;;;;;;;29.85;22.17;;;17.00;88.50;;;;;;5022560;28;20072;-72
2021/08/21 02:38:31;;;;;;;29.17;21.35;;;17.00;88.50;;;;;;5028869;28;20466;-73
2021/08/21 02:40:57;;;;;;;29.13;21.48;;;17.00;88.60;;;;;;5030400;28;20388;-72
2021/08/21 02:43:22;;;;;;;32.92;24.98;;;16.80;88.60;;;;;;5030358;28;20026;-74
2021/08/21 02:45:49;;;;;;;35.35;24.63;;;16.80;88.80;;;;;;5029838;28;20408;-78
2021/08/21 02:48:15;;;;;;;31.40;23.90;;;16.80;89.00;;;;;;5025946;28;21165;-74
2021/08/21 02:50:41;;;;;;;31.13;24.58;;;16.70;89.10;;;;;;5028534;28;20109;-72
2021/08/21 02:53:07;;;;;;;32.60;25.27;;;16.70;89.30;;;;;;5026406;28;20037;-72
2021/08/21 02:55:32;;;;;;;31.83;25.08;;;16.60;89.40;;;;;;5019591;28;20026;-72
2021/08/21 02:57:58;;;;;;;33.38;25.15;;;16.60;89.50;;;;;;5010636;28;20488;-73
2021/08/21 03:00:24;;;;;;;31.45;24.45;;;16.60;89.60;;;;;;5025536;28;20516;-73
2021/08/21 03:02:50;;;;;;;30.13;22.58;;;16.60;89.70;;;;;;5016715;28;20042;-77
2021/08/21 03:05:16;;;;;;;35.30;25.58;;;16.60;89.80;;;;;;5028664;28;20053;-73
2021/08/21 03:07:41;;;;;;;31.98;23.67;;;16.50;89.80;;;;;;5022736;28;20071;-73
2021/08/21 03:10:08;;;;;;;30.33;23.63;;;16.50;89.90;;;;;;5025738;28;20485;-72
2021/08/21 03:12:33;;;;;;;31.98;23.05;;;16.50;89.80;;;;;;5011525;28;20059;-73
2021/08/21 03:14:59;;;;;;;31.73;22.77;;;16.50;89.80;;;;;;5014760;28;20054;-73
2021/08/21 03:17:25;;;;;;;30.15;23.10;;;16.50;89.80;;;;;;5025640;28;20041;-72
2021/08/21 03:19:51;;;;;;;27.85;22.35;;;16.50;89.80;;;;;;5020543;28;20032;-74
2021/08/21 03:22:17;;;;;;;29.70;23.58;;;16.50;89.80;;;;;;5028132;28;20049;-72
2021/08/21 03:24:44;;;;;;;32.42;23.70;;;16.50;89.70;;;;;;5027177;28;20384;-73
2021/08/21 03:27:10;;;;;;;32.22;24.90;;;16.50;89.70;;;;;;5016262;28;20026;-72
2021/08/21 03:29:36;;;;;;;31.25;23.88;;;16.50;89.70;;;;;;5015156;28;20046;-73
2021/08/21 03:32:02;;;;;;;29.67;23.42;;;16.50;89.70;;;;;;5019863;28;20475;-72
2021/08/21 03:34:28;;;;;;;30.77;23.38;;;16.40;89.70;;;;;;5019464;28;20384;-73
2021/08/21 03:36:54;;;;;;;28.33;22.80;;;16.40;89.70;;;;;;5014919;28;20050;-72
2021/08/21 03:39:20;;;;;;;29.90;24.27;;;16.40;89.60;;;;;;5015024;28;20041;-73
2021/08/21 03:41:47;;;;;;;30.15;23.80;;;16.40;89.70;;;;;;5015321;28;20026;-82
2021/08/21 03:44:13;;;;;;;28.58;21.85;;;16.40;89.70;;;;;;5013606;28;20409;-74
2021/08/21 03:46:39;;;;;;;31.38;23.45;;;16.40;89.70;;;;;;5024975;28;20030;-73
2021/08/21 03:49:05;;;;;;;30.77;24.08;;;16.30;89.70;;;;;;5020522;28;20034;-76
2021/08/21 03:51:31;;;;;;;29.00;22.77;;;16.30;89.50;;;;;;5027693;28;20030;-72
2021/08/21 03:53:56;;;;;;;32.33;23.42;;;16.20;89.50;;;;;;5021372;28;20064;-72
2021/08/21 03:56:22;;;;;;;27.55;21.48;;;16.20;89.40;;;;;;5027735;28;20050;-72
2021/08/21 03:58:48;;;;;;;30.58;21.75;;;16.10;89.40;;;;;;5015023;28;20372;-74
2021/08/21 04:01:13;;;;;;;28.73;22.50;;;16.10;89.50;;;;;;5021774;28;20040;-75
2021/08/21 04:03:39;;;;;;;27.52;22.48;;;16.10;89.50;;;;;;5025614;28;20082;-73
2021/08/21 04:06:07;;;;;;;28.73;21.75;;;16.10;89.40;;;;;;5015653;28;20044;-72
2021/08/21 04:08:33;;;;;;;27.95;21.55;;;16.10;89.30;;;;;;5013438;28;20037;-72
2021/08/21 04:10:59;;;;;;;31.27;22.45;;;16.10;89.20;;;;;;5014767;28;20030;-72
2021/08/21 04:13:27;;;;;;;33.08;23.08;;;16.10;89.20;;;;;;5014447;28;20022;-73
2021/08/21 04:15:53;;;;;;;28.85;22.15;;;16.10;89.20;;;;;;5020052;28;20132;-72
2021/08/21 04:18:19;;;;;;;28.52;22.88;;;16.00;89.20;;;;;;5031422;28;20057;-72
2021/08/21 04:20:44;;;;;;;28.73;22.98;;;15.90;89.30;;;;;;5032183;28;20021;-76
2021/08/21 04:23:10;;;;;;;33.20;23.65;;;15.90;89.40;;;;;;5034833;28;20053;-73
2021/08/21 04:25:36;;;;;;;29.05;22.30;;;15.90;89.40;;;;;;5031481;28;20124;-72
2021/08/21 04:28:01;;;;;;;26.00;20.67;;;15.90;89.40;;;;;;4998880;28;20030;-73
2021/08/21 04:30:27;;;;;;;26.65;20.63;;;15.90;89.40;;;;;;5014331;28;20525;-74
2021/08/21 04:32:53;;;;;;;27.05;21.50;;;15.90;89.40;;;;;;5013043;28;20046;-72
2021/08/21 04:35:18;;;;;;;27.33;21.00;;;15.90;89.30;;;;;;5022744;28;20033;-73
2021/08/21 04:37:44;;;;;;;26.73;21.42;;;15.80;89.20;;;;;;5018592;28;20061;-77
2021/08/21 04:40:10;;;;;;;26.40;20.60;;;15.80;89.30;;;;;;5000686;28;20121;-72
2021/08/21 04:42:36;;;;;;;29.10;20.85;;;15.80;89.30;;;;;;4999474;28;20033;-73
2021/08/21 04:45:03;;;;;;;27.77;21.90;;;15.80;89.30;;;;;;5001757;28;20042;-73
2021/08/21 04:47:29;;;;;;;30.13;22.75;;;15.80;89.30;;;;;;5006166;28;20046;-73
2021/08/21 04:49:55;;;;;;;27.85;22.38;;;15.80;89.30;;;;;;5027955;28;20079;-72
2021/08/21 04:52:22;;;;;;;28.23;21.88;;;15.80;89.30;;;;;;5018517;28;20137;-72
2021/08/21 04:54:49;;;;;;;28.33;21.05;;;15.80;89.30;;;;;;5024812;28;20037;-74
2021/08/21 04:57:15;;;;;;;26.90;20.15;;;15.80;89.10;;;;;;5028834;28;20480;-72
2021/08/21 04:59:40;;;;;;;27.00;20.88;;;15.80;89.00;;;;;;5027942;28;20037;-72
2021/08/21 05:02:06;;;;;;;28.88;21.17;;;15.80;88.90;;;;;;5017618;28;20042;-79
2021/08/21 05:04:32;;;;;;;25.25;20.15;;;15.80;88.80;;;;;;5030485;28;20049;-72
2021/08/21 05:06:58;;;;;;;25.92;20.77;;;15.80;88.80;;;;;;5018941;28;20034;-72
2021/08/21 05:09:23;;;;;;;29.00;20.40;;;15.90;88.50;;;;;;5013955;28;20030;-78
2021/08/21 05:11:49;;;;;;;32.38;22.77;;;15.90;88.10;;;;;;5018118;28;20030;-72
2021/08/21 05:14:15;;;;;;;31.98;22.05;;;15.80;87.90;;;;;;5045839;28;20045;-73
2021/08/21 05:16:46;;;;;;;27.90;22.63;;;15.80;88.10;;;;;;5037266;28;20045;-73
2021/08/21 05:21:52;;;;;;;25.85;19.10;;;15.90;88.10;;;;;;5021899;28;20072;-75
2021/08/21 05:24:18;;;;;;;27.75;20.85;;;15.90;88.30;;;;;;5016568;28;20049;-73
2021/08/21 05:26:48;;;;;;;26.98;19.58;;;16.00;88.20;;;;;;5008448;28;20030;-75
2021/08/21 05:29:17;;;;;;;25.63;19.15;;;16.00;88.20;;;;;;4999223;28;20026;-72
2021/08/21 05:31:43;;;;;;;24.40;19.85;;;16.10;88.30;;;;;;5008498;28;20044;-72
2021/08/21 05:34:10;;;;;;;30.63;22.95;;;16.10;88.50;;;;;;5011369;28;20046;-72
2021/08/21 05:36:36;;;;;;;32.03;23.45;;;16.10;88.40;;;;;;5010958;28;20088;-78
2021/08/21 05:39:02;;;;;;;30.75;23.05;;;16.20;88.60;;;;;;5012069;28;20466;-73
2021/08/21 05:41:28;;;;;;;32.28;24.23;;;16.30;88.60;;;;;;5009496;28;20026;-70
2021/08/21 05:43:55;;;;;;;33.58;25.25;;;16.30;88.70;;;;;;5022147;28;20512;-71
2021/08/21 05:46:20;;;;;;;37.38;24.98;;;16.30;88.60;;;;;;5019349;28;20033;-71
2021/08/21 05:48:46;;;;;;;30.30;23.30;;;16.50;88.80;;;;;;5018514;28;20459;-70
2021/08/21 05:51:12;;;;;;;31.63;25.02;;;16.50;88.80;;;;;;5011086;28;20389;-70
2021/08/21 05:53:37;;;;;;;34.30;26.27;;;16.60;88.60;;;;;;5026730;28;20481;-72
2021/08/21 05:56:03;;;;;;;33.63;25.75;;;16.60;88.40;;;;;;5024172;28;20080;-70
2021/08/21 05:58:29;;;;;;;33.22;26.23;;;16.70;88.40;;;;;;5010331;28;20052;-70
2021/08/21 06:00:55;;;;;;;31.50;25.05;;;16.70;88.40;;;;;;5017142;28;20116;-70
2021/08/21 06:03:20;;;;;;;31.42;25.77;;;16.80;88.10;;;;;;5021966;28;21205;-70
2021/08/21 06:05:46;;;;;;;31.35;26.40;;;16.80;88.20;;;;;;5010694;28;20121;-71
2021/08/21 06:08:12;;;;;;;33.95;24.45;;;16.90;88.20;;;;;;5011209;28;20125;-71
2021/08/21 06:10:41;;;;;;;31.95;25.65;;;17.00;88.40;;;;;;5030999;28;20396;-72
2021/08/21 06:13:06;;;;;;;33.42;26.30;;;17.10;88.50;;;;;;5012052;28;20033;-69
2021/08/21 06:15:32;;;;;;;33.13;26.30;;;17.20;88.40;;;;;;5013790;28;20044;-71
2021/08/21 06:17:58;;;;;;;31.23;24.52;;;17.30;88.00;;;;;;5016908;28;20030;-73
2021/08/21 06:20:23;;;;;;;32.53;26.67;;;17.50;87.70;;;;;;5024035;28;20029;-70
2021/08/21 06:22:50;;;;;;;32.55;26.10;;;17.60;87.50;;;;;;5035463;28;20041;-70
2021/08/21 06:25:16;;;;;;;28.52;24.15;;;17.80;86.70;;;;;;5026562;28;20460;-70
2021/08/21 06:27:42;;;;;;;28.83;23.27;;;18.00;86.10;;;;;;5020702;28;20478;-70
2021/08/21 06:30:08;;;;;;;29.05;23.77;;;18.10;85.60;;;;;;5023221;28;20079;-72
2021/08/21 06:32:34;;;;;;;28.02;22.33;;;18.20;85.20;;;;;;5017911;28;20064;-71
2021/08/21 06:35:00;;;;;;;27.55;21.77;;;18.40;84.90;;;;;;5016835;28;20116;-74
2021/08/21 06:37:26;;;;;;;24.90;20.42;;;18.50;84.40;;;;;;5025262;28;20187;-72
2021/08/21 06:39:51;;;;;;;23.80;20.27;;;18.60;83.80;;;;;;5030827;28;20511;-72
2021/08/21 06:42:17;;;;;;;27.40;20.10;;;18.70;83.50;;;;;;4997444;28;20029;-70
2021/08/21 06:44:43;;;;;;;22.80;18.33;;;18.80;82.40;;;;;;5006312;28;20044;-71
2021/08/21 06:47:08;;;;;;;22.88;19.60;;;18.90;82.60;;;;;;5016072;28;20129;-76
2021/08/21 06:49:34;;;;;;;23.83;19.52;;;19.10;82.10;;;;;;5011674;28;20065;-71
2021/08/21 06:52:00;;;;;;;24.60;18.45;;;19.30;81.50;;;;;;5032763;28;20029;-71
2021/08/21 06:54:25;;;;;;;21.27;17.98;;;19.60;81.60;;;;;;5024813;28;20088;-71
2021/08/21 06:56:51;;;;;;;21.48;16.73;;;19.80;79.70;;;;;;5024994;28;20350;-71
2021/08/21 06:59:16;;;;;;;21.33;17.60;;;20.00;80.50;;;;;;5010161;28;20444;-75
2021/08/21 07:01:42;;;;;;;22.92;16.83;;;20.10;79.20;;;;;;5018583;28;20053;-71
2021/08/21 07:04:08;;;;;;;19.65;16.17;;;20.20;79.20;;;;;;5010126;28;20037;-75
2021/08/21 07:06:34;;;;;;;20.60;17.08;;;20.30;78.90;;;;;;5009625;28;20065;-71
2021/08/21 07:09:00;;;;;;;21.25;16.38;;;20.30;78.50;;;;;;5011024;28;20041;-72
2021/08/21 07:11:26;;;;;;;20.95;16.20;;;20.50;78.60;;;;;;5014078;28;20362;-71
2021/08/21 07:13:52;;;;;;;18.52;15.35;;;20.50;78.10;;;;;;5004609;28;20037;-71
2021/08/21 07:16:17;;;;;;;19.73;15.65;;;20.60;78.20;;;;;;5028402;28;20444;-71
2021/08/21 07:18:43;;;;;;;17.02;14.68;;;20.60;78.20;;;;;;5011713;28;20026;-71
2021/08/21 07:21:10;;;;;;;18.02;15.20;;;20.80;77.90;;;;;;5015563;28;20037;-73
2021/08/21 07:23:36;;;;;;;17.30;14.75;;;20.80;78.20;;;;;;5019792;28;20065;-71
2021/08/21 07:26:03;;;;;;;17.00;13.20;;;21.00;77.70;;;;;;5023646;28;20057;-71
2021/08/21 07:28:29;;;;;;;17.33;12.82;;;21.10;77.50;;;;;;5015324;28;20032;-71
2021/08/21 07:30:55;;;;;;;15.00;12.32;;;21.40;76.70;;;;;;5018446;28;20038;-72
2021/08/21 07:33:20;;;;;;;15.80;11.15;;;21.60;75.30;;;;;;5024012;28;21610;-71
2021/08/21 07:35:46;;;;;;;12.88;9.98;;;21.80;75.50;;;;;;5029534;28;20045;-71
2021/08/21 07:38:12;;;;;;;12.23;7.90;;;21.80;74.60;;;;;;5017458;28;20529;-72
2021/08/21 07:40:38;;;;;;;9.27;6.65;;;22.00;74.40;;;;;;5012401;28;20410;-71
2021/08/21 07:43:04;;;;;;;9.85;7.35;;;22.00;73.50;;;;;;5010698;28;20112;-72
2021/08/21 07:45:30;;;;;;;10.05;6.43;;;22.00;72.60;;;;;;5020636;28;20079;-70
2021/08/21 07:47:57;;;;;;;9.65;7.10;;;22.10;72.90;;;;;;5021194;28;20041;-70
2021/08/21 07:50:22;;;;;;;10.18;6.63;;;22.10;72.50;;;;;;5020032;28;20034;-75
2021/08/21 07:52:48;;;;;;;8.80;5.82;;;22.10;71.60;;;;;;5018745;28;20022;-71
2021/08/21 07:55:14;;;;;;;10.00;7.07;;;22.10;70.60;;;;;;5024859;28;20103;-73
2021/08/21 07:57:40;;;;;;;9.90;5.82;;;22.10;71.90;;;;;;5023600;28;20045;-70
2021/08/21 08:00:07;;;;;;;8.32;5.88;;;21.80;71.10;;;;;;5017987;28;20441;-74
2021/08/21 08:02:32;;;;;;;9.95;6.40;;;21.90;71.50;;;;;;5017899;28;20029;-73
2021/08/21 08:04:58;;;;;;;9.40;6.95;;;22.00;71.80;;;;;;5020800;28;20037;-71
2021/08/21 08:07:24;;;;;;;8.80;6.72;;;22.20;71.60;;;;;;5044962;28;20053;-71
2021/08/21 08:09:50;;;;;;;10.35;6.95;;;22.40;71.00;;;;;;5021742;28;20029;-71
2021/08/21 08:12:15;;;;;;;11.13;6.60;;;22.60;71.00;;;;;;5028369;28;20084;-72
2021/08/21 08:14:41;;;;;;;10.13;6.40;;;22.90;70.10;;;;;;5020104;28;20079;-72
2021/08/21 08:17:07;;;;;;;8.20;5.22;;;23.00;68.80;;;;;;5021485;28;20062;-76
2021/08/21 08:19:33;;;;;;;8.35;5.43;;;23.10;67.30;;;;;;5024381;28;20072;-71
2021/08/21 08:21:59;;;;;;;7.68;5.53;;;23.20;66.40;;;;;;5014858;28;20141;-71
2021/08/21 08:24:25;;;;;;;8.25;5.35;;;23.50;66.80;;;;;;5032135;28;20469;-72
2021/08/21 08:26:51;;;;;;;7.88;4.75;;;23.60;65.60;;;;;;5020177;28;20026;-76
2021/08/21 08:29:16;;;;;;;8.00;5.10;;;23.60;65.70;;;;;;5027960;28;20385;-71
2021/08/21 08:31:42;;;;;;;10.88;4.68;;;23.60;65.50;;;;;;5031067;28;20045;-71
2021/08/21 08:34:08;;;;;;;7.90;4.30;;;23.70;64.60;;;;;;5028111;28;20381;-71
2021/08/21 08:36:33;;;;;;;7.57;4.53;;;23.90;63.40;;;;;;5030505;28;20025;-72
2021/08/21 08:38:59;;;;;;;8.40;4.45;;;23.90;63.40;;;;;;5018997;28;20026;-71
2021/08/21 08:41:24;;;;;;;7.00;3.75;;;24.00;64.20;;;;;;5022856;28;20137;-71
2021/08/21 08:43:50;;;;;;;6.03;3.70;;;24.10;63.20;;;;;;5024990;28;20099;-71
2021/08/21 08:46:21;;;;;;;8.20;3.78;;;24.50;62.30;;;;;;5029410;28;20042;-72
2021/08/21 08:48:47;;;;;;;9.65;4.00;;;24.70;61.60;;;;;;5018199;28;20501;-72
2021/08/21 08:51:13;;;;;;;5.95;3.25;;;24.90;61.20;;;;;;5028111;28;20461;-71
2021/08/21 08:53:39;;;;;;;6.35;3.28;;;25.00;60.50;;;;;;5027055;28;20025;-76
2021/08/21 08:56:05;;;;;;;6.10;3.42;;;25.10;59.00;;;;;;5026051;28;20045;-71
2021/08/21 08:58:30;;;;;;;9.27;3.70;;;25.00;59.50;;;;;;5021609;28;20076;-71
2021/08/21 09:00:56;;;;;;;5.63;2.97;;;25.10;60.10;;;;;;5027656;28;20056;-72
2021/08/21 09:03:25;;;;;;;6.20;3.03;;;25.20;59.30;;;;;;5016837;28;20524;-73
2021/08/21 09:05:52;;;;;;;7.32;3.97;;;25.20;59.70;;;;;;5029563;28;20046;-71
2021/08/21 09:08:21;;;;;;;5.78;3.22;;;25.10;59.60;;;;;;5024295;28;20036;-71
2021/08/21 09:10:47;;;;;;;5.60;2.72;;;24.80;60.60;;;;;;5011741;28;20046;-71
2021/08/21 09:13:15;;;;;;;6.10;2.58;;;24.80;59.80;;;;;;5014901;28;20044;-71
2021/08/21 09:15:49;;;;;;;5.20;2.83;;;25.00;59.30;;;;;;5030333;28;20049;-71
2021/08/21 09:18:24;;;;;;;5.18;2.53;;;25.00;59.60;;;;;;5028040;28;20034;-72
2021/08/21 09:20:52;;;;;;;3.78;2.20;;;24.90;57.90;;;;;;5030379;28;20060;-71
2021/08/21 09:23:29;;;;;;;5.25;2.42;;;24.90;57.50;;;;;;5029306;28;20092;-75
2021/08/21 09:26:03;;;;;;;5.45;2.55;;;25.10;57.80;;;;;;5026573;28;20499;-72
2021/08/21 09:28:28;;;;;;;6.18;2.63;;;25.40;57.80;;;;;;5008113;28;20144;-72
2021/08/21 09:31:17;;;;;;;4.28;2.53;;;25.70;56.20;;;;;;5000511;28;20441;-72
2021/08/21 09:33:59;;;;;;;5.00;2.45;;;26.00;55.50;;;;;;5020337;28;20083;-71
2021/08/21 09:36:29;;;;;;;3.13;1.98;;;25.80;55.70;;;;;;5012208;28;20088;-71
2021/08/21 09:38:55;;;;;;;4.03;1.90;;;26.00;54.90;;;;;;5028708;28;20038;-72
2021/08/21 09:41:20;;;;;;;3.63;2.00;;;26.00;53.90;;;;;;5029493;28;20056;-72
2021/08/21 09:43:46;;;;;;;4.50;2.20;;;26.00;54.40;;;;;;5026203;28;20053;-74
2021/08/21 09:46:14;;;;;;;4.63;2.40;;;26.10;53.90;;;;;;5018305;28;20500;-72
2021/08/21 09:48:56;;;;;;;4.22;2.17;;;26.20;54.10;;;;;;5029172;28;20034;-72
2021/08/21 09:51:40;;;;;;;4.05;2.00;;;26.10;54.30;;;;;;5012879;28;20038;-71
2021/08/21 09:54:18;;;;;;;4.50;2.20;;;25.90;53.70;;;;;;5013394;28;20093;-73
2021/08/21 09:56:51;;;;;;;3.85;2.35;;;25.80;54.40;;;;;;4999618;28;20041;-72
2021/08/21 09:59:16;;;;;;;3.45;2.13;;;25.80;55.10;;;;;;5007611;28;20038;-73
2021/08/21 10:01:45;;;;;;;7.00;2.33;;;25.80;55.30;;;;;;5018329;28;20065;-72
2021/08/21 10:04:11;;;;;;;5.65;2.20;;;25.70;55.10;;;;;;5020181;28;20029;-72
2021/08/21 10:06:38;;;;;;;4.63;2.33;;;25.90;54.30;;;;;;5013326;28;20060;-73
2021/08/21 10:09:10;;;;;;;10.75;2.30;;;26.10;54.80;;;;;;5021675;28;20477;-72
2021/08/21 10:11:37;;;;;;;4.70;2.55;;;26.20;54.60;;;;;;5027980;28;20060;-71
2021/08/21 10:14:03;;;;;;;3.92;2.10;;;26.20;54.40;;;;;;5020939;28;20111;-72
2021/08/21 10:16:31;;;;;;;4.78;2.25;;;26.20;53.20;;;;;;5021918;28;20041;-72
2021/08/21 10:18:59;;;;;;;4.45;2.20;;;26.10;54.30;;;;;;5029404;28;20017;-72
2021/08/21 10:21:25;;;;;;;4.90;2.63;;;26.30;53.40;;;;;;5028216;28;20038;-72
2021/08/21 10:23:52;;;;;;;5.32;2.40;;;26.60;52.50;;;;;;5024013;28;20589;-72
2021/08/21 10:26:31;;;;;;;5.35;2.20;;;26.40;52.80;;;;;;5018760;28;20124;-72
2021/08/21 10:28:59;;;;;;;4.43;2.40;;;26.60;52.80;;;;;;5021782;28;20038;-72
2021/08/21 10:31:44;;;;;;;5.28;2.30;;;26.90;52.50;;;;;;5011512;28;20072;-72
2021/08/21 10:34:13;;;;;;;4.20;2.30;;;26.80;51.40;;;;;;5027626;28;20029;-72
2021/08/21 10:36:56;;;;;;;5.07;2.55;;;26.60;51.90;;;;;;5029081;28;20029;-72
2021/08/21 10:39:31;;;;;;;4.15;2.22;;;26.60;51.90;;;;;;5010823;28;20106;-73
2021/08/21 10:41:57;;;;;;;5.00;2.58;;;26.60;52.30;;;;;;5012600;28;20544;-72
2021/08/21 10:44:42;;;;;;;5.70;2.63;;;26.70;53.20;;;;;;5016554;28;20026;-73
2021/08/21 10:47:29;;;;;;;6.43;2.50;;;26.70;52.80;;;;;;5027590;28;20095;-77
2021/08/21 10:49:56;;;;;;;6.47;2.97;;;26.60;53.90;;;;;;5018799;28;20048;-71
2021/08/21 10:52:57;;;;;;;4.72;2.50;;;26.30;53.50;;;;;;5032170;28;20349;-71
2021/08/21 10:55:36;;;;;;;6.30;2.63;;;26.30;54.10;;;;;;5021106;28;20116;-76
2021/08/21 10:58:08;;;;;;;6.10;2.95;;;26.40;52.90;;;;;;5011324;28;20151;-72
2021/08/21 11:00:39;;;;;;;6.38;2.70;;;26.40;53.10;;;;;;5014411;28;20033;-71
2021/08/21 11:03:07;;;;;;;6.20;2.80;;;26.30;53.50;;;;;;5012199;28;20469;-74
2021/08/21 11:05:57;;;;;;;6.53;2.85;;;26.60;52.90;;;;;;5027414;28;20041;-72
2021/08/21 11:08:28;;;;;;;4.70;2.58;;;26.40;53.00;;;;;;5017332;28;20033;-72
2021/08/21 11:14:01;;;;;;;6.85;3.33;;;26.30;53.40;;;;;;5019257;28;20026;-71
2021/08/21 11:16:50;;;;;;;7.40;2.92;;;26.30;53.20;;;;;;5022363;28;20547;-72
2021/08/21 11:19:32;;;;;;;6.03;2.90;;;26.50;52.10;;;;;;5022133;28;20493;-71
2021/08/21 11:22:13;;;;;;;6.38;3.15;;;26.40;51.70;;;;;;5011787;28;20049;-72
2021/08/21 11:25:06;;;;;;;5.47;2.88;;;26.40;52.80;;;;;;5023880;28;20045;-71
2021/08/21 11:27:34;;;;;;;7.93;3.30;;;26.50;51.70;;;;;;5011668;28;20101;-72
2021/08/21 11:30:12;;;;;;;7.57;3.13;;;26.60;52.60;;;;;;5013011;28;20370;-72
2021/08/21 11:32:54;;;;;;;7.45;3.17;;;26.80;52.60;;;;;;5011506;28;20057;-72
2021/08/21 11:35:24;;;;;;;6.22;3.47;;;27.00;52.60;;;;;;5016233;28;20034;-72
2021/08/21 11:38:11;;;;;;;6.93;3.55;;;27.10;52.40;;;;;;5031116;28;20120;-74
2021/08/21 11:40:51;;;;;;;8.25;3.70;;;27.60;51.60;;;;;;5028455;28;20037;-73
2021/08/21 11:43:21;;;;;;;6.75;3.63;;;27.50;51.10;;;;;;5030349;28;20034;-72
2021/08/21 11:45:47;;;;;;;5.85;3.28;;;27.50;50.70;;;;;;5026017;28;20456;-71
2021/08/21 11:48:13;;;;;;;6.00;3.78;;;27.60;49.80;;;;;;5020809;28;20057;-71
2021/08/21 11:50:41;;;;;;;6.60;3.45;;;27.30;50.00;;;;;;5027227;28;20041;-71
2021/08/21 11:53:16;;;;;;;6.70;4.00;;;27.30;50.80;;;;;;5031396;28;20030;-71
2021/08/21 11:55:42;;;;;;;6.70;3.45;;;27.10;50.90;;;;;;5029456;28;20044;-72
2021/08/21 11:58:10;;;;;;;6.88;3.35;;;27.20;51.30;;;;;;5026970;28;20034;-72
2021/08/21 12:00:42;;;;;;;4.95;3.05;;;27.40;51.80;;;;;;5017739;28;20108;-72
2021/08/21 12:03:11;;;;;;;6.18;3.00;;;27.60;50.80;;;;;;5014198;28;20242;-72
2021/08/21 12:05:41;;;;;;;6.28;3.40;;;27.70;50.00;;;;;;5020405;28;20041;-71
2021/08/21 12:08:23;;;;;;;6.57;3.20;;;27.60;49.50;;;;;;5023430;28;20030;-73
2021/08/21 12:10:51;;;;;;;7.25;3.05;;;27.90;50.20;;;;;;5013456;28;20042;-72
2021/08/21 12:13:20;;;;;;;6.05;3.25;;;28.10;49.70;;;;;;5012900;28;20030;-72
2021/08/21 12:15:47;;;;;;;5.65;3.45;;;28.00;47.80;;;;;;5019825;28;20072;-71
2021/08/21 12:18:14;;;;;;;8.07;3.13;;;27.90;47.70;;;;;;5020603;28;20377;-76
2021/08/21 12:20:40;;;;;;;6.85;3.30;;;28.00;49.20;;;;;;5030120;28;20041;-72
2021/08/21 12:23:08;;;;;;;4.30;2.63;;;27.90;49.00;;;;;;5025692;28;20378;-72
2021/08/21 12:25:44;;;;;;;6.03;3.30;;;27.70;51.60;;;;;;5016821;28;20061;-72
2021/08/21 12:28:12;;;;;;;6.55;3.35;;;27.80;49.20;;;;;;5012372;28;20473;-72
2021/08/21 12:30:38;;;;;;;7.60;3.20;;;27.80;48.10;;;;;;5018611;28;20033;-72
2021/08/21 12:33:11;;;;;;;7.53;3.20;;;27.90;48.50;;;;;;5020300;28;20034;-72
2021/08/21 12:35:37;;;;;;;5.78;3.20;;;27.60;49.00;;;;;;5012992;28;20037;-72
2021/08/21 12:38:05;;;;;;;6.57;3.47;;;27.60;49.00;;;;;;5011320;28;20030;-72
2021/08/21 12:40:31;;;;;;;5.90;3.25;;;27.60;49.00;;;;;;5019823;28;20030;-72
2021/08/21 12:43:05;;;;;;;8.02;3.05;;;27.60;49.40;;;;;;5012887;28;20068;-72
2021/08/21 12:45:32;;;;;;;7.40;3.53;;;27.80;48.80;;;;;;5012355;28;20136;-71